Time;durP1;ratioP1;P1;durP2;ratioP2;P2;SDS_P1;SDS_P2;PMS_P1;PMS_P2;Temp;Humidity;BMP_temperature;BMP_pressure;BME280_temperature;BME280_humidity;BME280_pressure;Samples;Min_cycle;Max_cycle;Signal;HPM_P1;HPM_P2
2022/05/01 00:01:37;;;;;;;;;;;9.70;99.90;;;;;;5062704;28;19927;-67
2022/05/01 00:04:04;;;;;;;;;;;9.70;99.90;;;;;;5062701;28;19927;-67
2022/05/01 00:06:32;;;;;;;;;;;9.70;99.90;;;;;;5062255;28;19920;-67
2022/05/01 00:09:00;;;;;;;;;;;9.70;99.90;;;;;;5062230;28;19927;-67
2022/05/01 00:11:26;;;;;;;;;;;9.70;99.90;;;;;;5062973;28;19921;-67
2022/05/01 00:13:53;;;;;;;;;;;9.70;99.90;;;;;;5062140;28;19921;-67
2022/05/01 00:16:21;;;;;;;;;;;9.60;99.90;;;;;;5061272;28;19927;-67
2022/05/01 00:18:48;;;;;;;;;;;9.50;99.90;;;;;;5063005;28;19930;-67
2022/05/01 00:21:14;;;;;;;;;;;9.50;99.90;;;;;;5056673;28;19920;-67
2022/05/01 00:23:41;;;;;;;;;;;9.50;99.90;;;;;;5061998;28;20205;-67
2022/05/01 00:26:08;;;;;;;;;;;9.50;99.90;;;;;;5061827;28;19921;-67
2022/05/01 00:28:36;;;;;;;;;;;9.50;99.90;;;;;;5064039;28;19920;-66
2022/05/01 00:31:05;;;;;;;;;;;9.50;99.90;;;;;;5066160;28;19920;-67
2022/05/01 00:36:26;;;;;;;;;;;9.60;99.90;;;;;;5065853;28;20192;-67
2022/05/01 00:38:53;;;;;;;;;;;9.50;99.90;;;;;;5065902;28;19935;-67
2022/05/01 00:41:21;;;;;;;;;;;9.50;99.90;;;;;;5066164;28;19921;-67
2022/05/01 00:43:58;;;;;;;;;;;9.50;99.90;;;;;;5065241;28;19959;-67
2022/05/01 00:46:24;;;;;;;;;;;9.50;99.90;;;;;;5062605;28;19940;-67
2022/05/01 00:48:53;;;;;;;;;;;9.50;99.90;;;;;;5060610;28;20225;-67
2022/05/01 00:51:20;;;;;;;;;;;9.60;99.90;;;;;;5052979;28;19921;-67
2022/05/01 00:53:47;;;;;;;;;;;9.60;99.90;;;;;;5048870;28;20120;-67
2022/05/01 00:56:14;;;;;;;;;;;9.60;99.90;;;;;;5065247;28;19921;-67
2022/05/01 00:58:41;;;;;;;;;;;9.50;99.90;;;;;;5065763;28;19920;-67
2022/05/01 01:01:08;;;;;;;;;;;9.60;99.90;;;;;;5065495;28;19920;-67
2022/05/01 01:03:34;;;;;;;;;;;9.50;99.90;;;;;;5065243;28;19921;-67
2022/05/01 01:06:02;;;;;;;;;;;9.50;99.90;;;;;;5065167;28;20120;-67
2022/05/01 01:08:29;;;;;;;;;;;9.50;99.90;;;;;;5064944;28;19925;-67
2022/05/01 01:10:56;;;;;;;;;;;9.50;99.90;;;;;;5058172;28;19921;-67
2022/05/01 01:13:26;;;;;;;;;;;9.50;99.90;;;;;;5064477;28;19928;-67
2022/05/01 01:15:54;;;;;;;;;;;9.50;99.90;;;;;;5064593;28;19952;-67
2022/05/01 01:18:20;;;;;;;;;;;9.60;99.90;;;;;;5065622;28;19921;-67
2022/05/01 01:20:48;;;;;;;;;;;9.50;99.90;;;;;;5065391;28;20085;-67
2022/05/01 01:23:15;;;;;;;;;;;9.40;99.90;;;;;;5064961;28;19921;-67
2022/05/01 01:25:41;;;;;;;;;;;9.40;99.90;;;;;;5063573;28;19928;-67
2022/05/01 01:28:08;;;;;;;;;;;9.40;99.90;;;;;;5044886;28;19984;-67
2022/05/01 01:33:19;;;;;;;;;;;9.40;99.90;;;;;;5059527;28;19966;-67
2022/05/01 01:35:48;;;;;;;;;;;9.30;99.90;;;;;;5064937;28;19924;-67
2022/05/01 01:38:16;;;;;;;;;;;9.30;99.90;;;;;;5064562;28;19988;-67
2022/05/01 01:40:44;;;;;;;;;;;9.30;99.90;;;;;;5063808;28;20239;-67
2022/05/01 01:43:12;;;;;;;;;;;9.30;99.90;;;;;;5064903;28;19921;-67
2022/05/01 01:45:38;;;;;;;;;;;9.30;99.90;;;;;;5064346;28;20101;-67
2022/05/01 01:48:11;;;;;;;;;;;9.40;99.90;;;;;;5064865;28;19928;-67
2022/05/01 01:50:38;;;;;;;;;;;9.40;99.90;;;;;;5064887;28;19927;-67
2022/05/01 01:53:05;;;;;;;;;;;9.30;99.90;;;;;;5064293;28;19927;-67
2022/05/01 01:55:33;;;;;;;;;;;9.30;99.90;;;;;;5064149;28;19929;-67
2022/05/01 01:58:00;;;;;;;;;;;9.30;99.90;;;;;;5064837;28;19921;-67
2022/05/01 02:00:27;;;;;;;;;;;9.30;99.90;;;;;;5064573;28;19927;-67
2022/05/01 02:02:57;;;;;;;;;;;9.30;99.90;;;;;;5064139;28;19921;-67
2022/05/01 02:05:24;;;;;;;;;;;9.30;99.90;;;;;;5064226;28;19921;-67
2022/05/01 02:07:51;;;;;;;;;;;9.30;99.90;;;;;;5063901;28;20208;-67
2022/05/01 02:10:18;;;;;;;;;;;9.30;99.90;;;;;;5064504;28;19959;-67
2022/05/01 02:12:46;;;;;;;;;;;9.30;99.90;;;;;;5064386;28;19929;-67
2022/05/01 02:15:13;;;;;;;;;;;9.30;99.90;;;;;;5063863;28;19927;-67
2022/05/01 02:17:40;;;;;;;;;;;9.20;99.90;;;;;;5064198;28;19927;-67
2022/05/01 02:20:08;;;;;;;;;;;9.20;99.90;;;;;;5063808;28;20155;-67
2022/05/01 02:22:35;;;;;;;;;;;9.20;99.90;;;;;;5063965;28;19928;-67
2022/05/01 02:25:01;;;;;;;;;;;9.30;99.90;;;;;;5063902;28;20123;-67
2022/05/01 02:27:28;;;;;;;;;;;9.20;99.90;;;;;;5063395;28;19921;-67
2022/05/01 02:29:56;;;;;;;;;;;9.30;99.90;;;;;;5064144;28;19920;-67
2022/05/01 02:32:22;;;;;;;;;;;9.30;99.90;;;;;;5063875;28;19921;-67
2022/05/01 02:34:49;;;;;;;;;;;9.30;99.90;;;;;;5063450;28;19935;-67
2022/05/01 02:37:15;;;;;;;;;;;9.30;99.90;;;;;;5063185;28;19921;-66
2022/05/01 02:39:42;;;;;;;;;;;9.30;99.90;;;;;;5063727;28;19925;-67
2022/05/01 02:42:09;;;;;;;;;;;9.20;99.90;;;;;;5063548;28;19987;-67
2022/05/01 02:44:35;;;;;;;;;;;9.20;99.90;;;;;;5063522;28;19920;-66
2022/05/01 02:47:05;;;;;;;;;;;9.20;99.90;;;;;;5063399;28;19920;-67
2022/05/01 02:49:31;;;;;;;;;;;9.20;99.90;;;;;;5063041;28;20152;-67
2022/05/01 02:51:58;;;;;;;;;;;9.30;99.90;;;;;;5063508;28;19927;-67
2022/05/01 02:54:27;;;;;;;;;;;9.10;99.90;;;;;;5063204;28;20235;-67
2022/05/01 02:56:54;;;;;;;;;;;9.20;99.90;;;;;;5063322;28;19970;-67
2022/05/01 02:59:20;;;;;;;;;;;9.10;99.90;;;;;;5063314;28;19927;-67
2022/05/01 03:01:47;;;;;;;;;;;9.10;99.90;;;;;;5045418;28;20231;-67
2022/05/01 03:04:15;;;;;;;;;;;9.10;99.90;;;;;;5053494;28;19935;-66
2022/05/01 03:06:42;;;;;;;;;;;9.20;99.90;;;;;;5062841;28;20212;-67
2022/05/01 03:09:09;;;;;;;;;;;9.20;99.90;;;;;;5063196;28;19959;-67
2022/05/01 03:11:36;;;;;;;;;;;9.20;99.90;;;;;;5063392;28;19920;-67
2022/05/01 03:14:03;;;;;;;;;;;9.20;99.90;;;;;;5062880;28;19920;-67
2022/05/01 03:16:30;;;;;;;;;;;9.20;99.90;;;;;;5062646;28;19921;-66
2022/05/01 03:24:26;;;;;;;;;;;9.20;99.90;;;;;;5063117;28;19928;-67
2022/05/01 03:26:52;;;;;;;;;;;9.10;99.90;;;;;;5062724;28;19959;-67
2022/05/01 03:29:19;;;;;;;;;;;9.20;99.90;;;;;;5062093;28;19929;-67
2022/05/01 03:31:48;;;;;;;;;;;9.20;99.90;;;;;;5063041;28;19921;-67
2022/05/01 03:34:14;;;;;;;;;;;9.10;99.90;;;;;;5062703;28;19921;-67
2022/05/01 03:36:44;;;;;;;;;;;9.20;99.90;;;;;;5062252;28;19921;-67
2022/05/01 03:39:11;;;;;;;;;;;9.20;99.90;;;;;;5062667;28;20120;-67
2022/05/01 03:41:38;;;;;;;;;;;9.20;99.90;;;;;;5062568;28;19920;-67
2022/05/01 03:44:05;;;;;;;;;;;9.20;99.90;;;;;;5062818;28;20213;-68
2022/05/01 03:46:31;;;;;;;;;;;9.20;99.90;;;;;;5062800;28;20139;-67
2022/05/01 03:48:58;;;;;;;;;;;9.20;99.90;;;;;;5063052;28;19927;-68
2022/05/01 03:51:25;;;;;;;;;;;9.20;99.90;;;;;;5063008;28;20258;-66
2022/05/01 03:53:53;;;;;;;;;;;9.30;99.90;;;;;;5062587;28;19920;-68
2022/05/01 03:56:20;;;;;;;;;;;9.30;99.90;;;;;;5062556;28;19935;-67
2022/05/01 03:58:46;;;;;;;;;;;9.30;99.90;;;;;;5062875;28;19921;-67
2022/05/01 04:01:13;;;;;;;;;;;9.40;99.90;;;;;;5062641;28;19921;-67
2022/05/01 04:03:40;;;;;;;;;;;9.30;99.90;;;;;;5065338;28;19920;-66
2022/05/01 04:06:07;;;;;;;;;;;9.30;99.90;;;;;;5066562;28;19983;-67
2022/05/01 04:08:33;;;;;;;;;;;9.40;99.90;;;;;;5066564;28;19921;-67
2022/05/01 04:11:02;;;;;;;;;;;9.40;99.90;;;;;;5066620;28;19921;-67
2022/05/01 04:13:28;;;;;;;;;;;9.40;99.90;;;;;;5066404;28;19956;-67
2022/05/01 04:15:55;;;;;;;;;;;9.30;99.90;;;;;;5066147;28;19928;-67
2022/05/01 04:18:21;;;;;;;;;;;9.30;99.90;;;;;;5066410;28;19927;-67
2022/05/01 04:20:50;;;;;;;;;;;9.30;99.90;;;;;;5066486;28;19928;-67
2022/05/01 04:23:16;;;;;;;;;;;9.40;99.90;;;;;;5066024;28;19928;-67
2022/05/01 04:25:43;;;;;;;;;;;9.40;99.90;;;;;;5066182;28;19921;-67
2022/05/01 04:28:11;;;;;;;;;;;9.30;99.90;;;;;;5065161;28;20201;-67
2022/05/01 04:30:39;;;;;;;;;;;9.30;99.90;;;;;;5066347;28;19920;-66
2022/05/01 04:33:07;;;;;;;;;;;9.30;99.90;;;;;;5066205;28;19943;-67
2022/05/01 04:35:34;;;;;;;;;;;9.30;99.90;;;;;;5065546;28;20217;-67
2022/05/01 04:38:02;;;;;;;;;;;9.30;99.90;;;;;;5066198;28;20001;-67
2022/05/01 04:40:29;;;;;;;;;;;9.30;99.90;;;;;;5065944;28;20120;-67
2022/05/01 04:43:05;;;;;;;;;;;9.30;99.90;;;;;;5065889;28;19920;-66
2022/05/01 04:45:33;;;;;;;;;;;9.30;99.90;;;;;;5065461;28;19921;-67
2022/05/01 04:47:59;;;;;;;;;;;9.40;99.90;;;;;;5066055;28;19927;-69
2022/05/01 04:50:26;;;;;;;;;;;9.30;99.90;;;;;;5065623;28;19925;-67
2022/05/01 04:52:53;;;;;;;;;;;9.30;99.90;;;;;;5066030;28;19924;-67
2022/05/01 04:55:19;;;;;;;;;;;9.30;99.90;;;;;;5065277;28;19921;-67
2022/05/01 04:57:46;;;;;;;;;;;9.30;99.90;;;;;;5065526;28;19921;-67
2022/05/01 05:00:13;;;;;;;;;;;9.30;99.90;;;;;;5065732;28;19927;-67
2022/05/01 05:02:43;;;;;;;;;;;9.40;99.90;;;;;;5065573;28;20115;-67
2022/05/01 05:05:10;;;;;;;;;;;9.40;99.90;;;;;;5065551;28;19926;-68
2022/05/01 05:07:37;;;;;;;;;;;9.40;99.90;;;;;;5065702;28;19920;-67
2022/05/01 05:10:03;;;;;;;;;;;9.40;99.90;;;;;;5065248;28;20212;-68
2022/05/01 05:12:31;;;;;;;;;;;9.40;99.90;;;;;;5065367;28;19917;-67
2022/05/01 05:15:00;;;;;;;;;;;9.50;99.90;;;;;;5064980;28;19921;-67
2022/05/01 05:17:28;;;;;;;;;;;9.50;99.90;;;;;;5064779;28;20219;-67
2022/05/01 05:19:56;;;;;;;;;;;9.60;99.90;;;;;;5065529;28;19920;-67
2022/05/01 05:22:22;;;;;;;;;;;9.50;99.90;;;;;;5065244;28;19921;-67
2022/05/01 05:24:49;;;;;;;;;;;9.60;99.90;;;;;;5064955;28;19920;-67
2022/05/01 05:27:17;;;;;;;;;;;9.60;99.90;;;;;;5065000;28;19922;-66
2022/05/01 05:29:44;;;;;;;;;;;9.50;99.90;;;;;;5064387;28;19920;-67
2022/05/01 05:32:10;;;;;;;;;;;9.60;99.90;;;;;;5065041;28;19980;-67
2022/05/01 05:34:37;;;;;;;;;;;9.60;99.90;;;;;;5065016;28;19927;-67
2022/05/01 05:37:05;;;;;;;;;;;9.60;99.90;;;;;;5064975;28;19927;-67
2022/05/01 05:39:31;;;;;;;;;;;9.60;99.90;;;;;;5064550;28;19927;-67
2022/05/01 05:41:58;;;;;;;;;;;9.70;99.90;;;;;;5065122;28;19947;-67
2022/05/01 05:44:25;;;;;;;;;;;9.80;99.90;;;;;;5064754;28;19984;-67
2022/05/01 05:46:51;;;;;;;;;;;9.70;99.90;;;;;;5064397;28;19944;-67
2022/05/01 05:49:18;;;;;;;;;;;9.70;99.90;;;;;;5064909;28;19943;-67
2022/05/01 05:51:44;;;;;;;;;;;9.80;99.90;;;;;;5064535;28;19921;-67
2022/05/01 05:54:12;;;;;;;;;;;9.80;99.90;;;;;;5064447;28;19927;-67
2022/05/01 05:56:39;;;;;;;;;;;9.80;99.90;;;;;;5064489;28;19920;-68
2022/05/01 05:59:06;;;;;;;;;;;9.80;99.90;;;;;;5064221;28;19921;-67
2022/05/01 06:01:32;;;;;;;;;;;9.80;99.90;;;;;;5064871;28;19921;-66
2022/05/01 06:03:59;;;;;;;;;;;9.80;99.90;;;;;;5064453;28;20117;-67
2022/05/01 06:06:25;;;;;;;;;;;9.80;99.90;;;;;;5063945;28;20238;-67
2022/05/01 06:08:52;;;;;;;;;;;9.80;99.90;;;;;;5064122;28;19983;-67
2022/05/01 06:11:20;;;;;;;;;;;9.80;99.90;;;;;;5064358;28;20231;-67
2022/05/01 06:13:47;;;;;;;;;;;9.90;99.90;;;;;;5063892;28;19929;-67
2022/05/01 06:16:13;;;;;;;;;;;9.90;99.90;;;;;;5063818;28;20163;-68
2022/05/01 06:18:40;;;;;;;;;;;9.90;99.90;;;;;;5064170;28;19921;-66
2022/05/01 06:21:06;;;;;;;;;;;9.90;99.90;;;;;;5063642;28;19927;-67
2022/05/01 06:23:34;;;;;;;;;;;9.90;99.90;;;;;;5064002;28;19928;-68
2022/05/01 06:26:03;;;;;;;;;;;9.80;99.90;;;;;;5062987;28;19928;-67
2022/05/01 06:28:31;;;;;;;;;;;9.80;99.90;;;;;;5064146;28;20179;-67
2022/05/01 06:30:58;;;;;;;;;;;9.80;99.90;;;;;;5064091;28;19927;-67
2022/05/01 06:33:25;;;;;;;;;;;9.90;99.90;;;;;;5063865;28;19921;-66
2022/05/01 06:35:53;;;;;;;;;;;9.90;99.90;;;;;;5063567;28;19927;-67
2022/05/01 06:38:19;;;;;;;;;;;9.80;99.90;;;;;;5059772;28;19921;-67
2022/05/01 06:40:47;;;;;;;;;;;9.80;99.90;;;;;;5043695;28;19931;-68
2022/05/01 06:43:14;;;;;;;;;;;9.90;99.90;;;;;;5043851;28;19924;-67
2022/05/01 06:45:42;;;;;;;;;;;9.90;99.90;;;;;;5059800;28;19921;-67
2022/05/01 06:48:09;;;;;;;;;;;9.90;99.90;;;;;;5063745;28;19921;-67
2022/05/01 06:50:35;;;;;;;;;;;9.90;99.90;;;;;;5063407;28;19925;-67
2022/05/01 06:53:02;;;;;;;;;;;9.90;99.90;;;;;;5063277;28;19929;-67
2022/05/01 06:55:28;;;;;;;;;;;10.00;99.90;;;;;;5062987;28;19937;-68
2022/05/01 06:57:55;;;;;;;;;;;10.10;99.90;;;;;;5063532;28;20119;-67
2022/05/01 07:00:22;;;;;;;;;;;10.00;99.90;;;;;;5063438;28;19987;-67
2022/05/01 07:02:50;;;;;;;;;;;10.00;99.90;;;;;;5063134;28;19920;-67
2022/05/01 07:05:18;;;;;;;;;;;10.00;99.90;;;;;;5063033;28;19924;-67
2022/05/01 07:07:45;;;;;;;;;;;10.10;99.90;;;;;;5062798;28;19920;-68
2022/05/01 07:10:12;;;;;;;;;;;10.00;99.90;;;;;;5063209;28;19924;-67
2022/05/01 07:12:38;;;;;;;;;;;10.00;99.90;;;;;;5063378;28;20124;-66
2022/05/01 07:15:06;;;;;;;;;;;10.10;99.90;;;;;;5063237;28;19921;-67
2022/05/01 07:17:33;;;;;;;;;;;10.10;99.90;;;;;;5063011;28;20173;-67
2022/05/01 07:20:02;;;;;;;;;;;10.10;99.90;;;;;;5063052;28;19987;-67
2022/05/01 07:22:29;;;;;;;;;;;10.10;99.90;;;;;;5049036;28;20174;-68
2022/05/01 07:24:56;;;;;;;;;;;10.10;99.90;;;;;;5063132;28;19921;-67
2022/05/01 07:27:22;;;;;;;;;;;10.10;99.90;;;;;;5058003;28;19921;-67
2022/05/01 07:29:49;;;;;;;;;;;10.10;99.90;;;;;;5058814;28;19920;-67
2022/05/01 07:32:15;;;;;;;;;;;10.20;99.90;;;;;;5059724;28;19920;-67
2022/05/01 07:34:42;;;;;;;;;;;10.20;99.90;;;;;;5062371;28;19991;-68
2022/05/01 07:37:10;;;;;;;;;;;10.20;99.90;;;;;;5048607;28;20000;-67
2022/05/01 07:39:36;;;;;;;;;;;10.20;99.90;;;;;;5066702;28;19967;-67
2022/05/01 07:42:03;;;;;;;;;;;10.20;99.90;;;;;;5066299;28;19921;-65
2022/05/01 07:44:30;;;;;;;;;;;10.20;99.90;;;;;;5066213;28;20003;-68
2022/05/01 07:46:57;;;;;;;;;;;10.30;99.90;;;;;;5067021;28;19921;-68
2022/05/01 07:49:24;;;;;;;;;;;10.30;99.90;;;;;;5067011;28;19921;-68
2022/05/01 07:51:51;;;;;;;;;;;10.40;99.90;;;;;;5065474;28;19927;-67
2022/05/01 07:54:19;;;;;;;;;;;10.40;99.90;;;;;;5066471;28;20113;-67
2022/05/01 07:56:46;;;;;;;;;;;10.50;99.90;;;;;;5065847;28;19921;-68
2022/05/01 07:59:14;;;;;;;;;;;10.50;99.90;;;;;;5066861;28;19967;-68
2022/05/01 08:01:40;;;;;;;;;;;10.60;99.90;;;;;;5066616;28;19983;-68
2022/05/01 08:07:01;;;;;;;;;;;10.60;99.90;;;;;;5039378;28;19923;-67
2022/05/01 08:09:30;;;;;;;;;;;10.60;99.90;;;;;;5052769;28;19980;-67
2022/05/01 08:11:57;;;;;;;;;;;10.60;99.90;;;;;;5062235;28;19967;-67
2022/05/01 08:14:23;;;;;;;;;;;10.70;99.90;;;;;;5066286;28;19929;-67
2022/05/01 08:16:50;;;;;;;;;;;10.70;99.90;;;;;;5065973;28;19927;-67
2022/05/01 08:22:02;;;;;;;;;;;10.80;99.90;;;;;;5064782;28;19936;-67
2022/05/01 08:24:29;;;;;;;;;;;10.80;99.90;;;;;;5062066;28;19959;-67
2022/05/01 08:26:56;;;;;;;;;;;10.80;99.90;;;;;;5063593;28;19921;-66
2022/05/01 08:29:23;;;;;;;;;;;10.80;99.90;;;;;;5066798;28;19920;-67
2022/05/01 08:31:49;;;;;;;;;;;10.90;99.90;;;;;;5066602;28;19920;-68
2022/05/01 08:34:17;;;;;;;;;;;10.90;99.90;;;;;;5056709;28;19980;-68
2022/05/01 08:36:45;;;;;;;;;;;11.00;99.90;;;;;;5064843;28;19921;-67
2022/05/01 08:39:12;;;;;;;;;;;11.00;99.90;;;;;;5058016;28;19932;-67
2022/05/01 08:41:40;;;;;;;;;;;11.10;99.90;;;;;;5066260;28;20234;-67
2022/05/01 08:44:09;;;;;;;;;;;11.20;99.90;;;;;;5046105;28;19921;-68
2022/05/01 08:46:46;;;;;;;;;;;11.30;99.90;;;;;;5046032;28;19930;-68
2022/05/01 08:49:15;;;;;;;;;;;11.30;99.90;;;;;;5059599;28;20030;-67
2022/05/01 08:51:42;;;;;;;;;;;11.30;99.90;;;;;;5066229;28;19943;-68
2022/05/01 08:54:09;;;;;;;;;;;11.40;99.90;;;;;;5065978;28;19927;-67
2022/05/01 08:56:37;;;;;;;;;;;11.30;99.90;;;;;;5065573;28;19928;-67
2022/05/01 08:59:06;;;;;;;;;;;11.30;99.90;;;;;;5066212;28;19920;-68
2022/05/01 09:01:33;;;;;;;;;;;11.30;99.90;;;;;;5066025;28;19927;-67
2022/05/01 09:04:00;;;;;;;;;;;11.30;99.90;;;;;;5065666;28;19921;-67
2022/05/01 09:06:27;;;;;;;;;;;11.30;99.90;;;;;;5065307;28;19925;-67
2022/05/01 09:08:54;;;;;;;;;;;11.40;99.90;;;;;;5065811;28;19928;-67
2022/05/01 09:14:01;;;;;;;;;;;11.40;99.90;;;;;;5022881;28;19980;-67
2022/05/01 09:16:29;;;;;;;;;;;11.50;99.90;;;;;;5052468;28;19927;-67
2022/05/01 09:18:55;;;;;;;;;;;11.60;99.90;;;;;;5065295;28;19920;-67
2022/05/01 09:21:22;;;;;;;;;;;11.70;99.90;;;;;;5064904;28;20231;-67
2022/05/01 09:23:49;;;;;;;;;;;11.90;99.90;;;;;;5061204;28;20133;-68
2022/05/01 09:26:16;;;;;;;;;;;12.10;99.90;;;;;;5046581;28;19921;-68
2022/05/01 09:28:48;;;;;;;;;;;12.10;99.90;;;;;;5045275;28;20183;-68
2022/05/01 09:31:14;;;;;;;;;;;12.00;99.90;;;;;;5063193;28;19920;-67
2022/05/01 09:33:42;;;;;;;;;;;12.00;99.90;;;;;;5057806;28;19927;-68
2022/05/01 09:36:10;;;;;;;;;;;12.00;99.90;;;;;;5064871;28;19924;-68
2022/05/01 09:38:36;;;;;;;;;;;12.00;99.90;;;;;;5064803;28;19920;-68
2022/05/01 09:41:12;;;;;;;;;;;12.10;99.90;;;;;;5063926;28;20124;-69
2022/05/01 09:43:41;;;;;;;;;;;12.20;99.90;;;;;;5045028;28;19921;-68
2022/05/01 09:46:14;;;;;;;;;;;12.30;99.90;;;;;;5043091;28;19925;-68
2022/05/01 09:48:43;;;;;;;;;;;12.40;99.90;;;;;;5057677;28;19921;-68
2022/05/01 09:51:16;;;;;;;;;;;12.50;99.90;;;;;;5064678;28;20223;-68
2022/05/01 09:53:43;;;;;;;;;;;12.70;99.90;;;;;;5064094;28;19921;-68
2022/05/01 09:56:09;;;;;;;;;;;12.90;99.90;;;;;;5064004;28;19921;-68
2022/05/01 09:58:38;;;;;;;;;;;13.10;99.90;;;;;;5064749;28;19921;-68
2022/05/01 10:01:09;;;;;;;;;;;13.30;99.90;;;;;;5045935;28;19960;-68
2022/05/01 10:03:36;;;;;;;;;;;13.30;99.90;;;;;;5046647;28;19927;-68
2022/05/01 10:06:06;;;;;;;;;;;13.40;99.90;;;;;;5060154;28;19921;-68
2022/05/01 10:08:33;;;;;;;;;;;13.30;99.90;;;;;;5060052;28;19956;-69
2022/05/01 10:11:00;;;;;;;;;;;13.40;99.90;;;;;;5059113;28;20246;-68
2022/05/01 10:13:28;;;;;;;;;;;13.50;99.90;;;;;;5061518;28;19920;-68
2022/05/01 10:15:55;;;;;;;;;;;13.50;99.90;;;;;;5061642;28;20212;-68
2022/05/01 10:18:23;;;;;;;;;;;13.60;99.90;;;;;;5060276;28;19959;-68
2022/05/01 10:20:50;;;;;;;;;;;13.60;99.90;;;;;;5063929;28;19921;-69
2022/05/01 10:23:18;;;;;;;;;;;13.60;99.90;;;;;;5062629;28;19925;-68
2022/05/01 10:25:48;;;;;;;;;;;13.70;99.90;;;;;;5062884;28;19927;-68
2022/05/01 10:28:21;;;;;;;;;;;13.70;99.90;;;;;;5061619;28;19921;-68
2022/05/01 10:33:50;;;;;;;;;;;13.90;99.90;;;;;;5063616;28;19923;-69
2022/05/01 10:36:30;;;;;;;;;;;14.00;99.90;;;;;;5059238;28;19927;-69
2022/05/01 10:39:04;;;;;;;;;;;14.20;99.90;;;;;;5063318;28;19920;-68
2022/05/01 10:41:31;;;;;;;;;;;14.30;99.90;;;;;;5063418;28;20123;-68
2022/05/01 10:43:59;;;;;;;;;;;14.40;99.90;;;;;;5063304;28;20226;-68
2022/05/01 10:46:29;;;;;;;;;;;14.60;99.90;;;;;;5060036;28;19920;-68
2022/05/01 10:49:00;;;;;;;;;;;14.50;99.90;;;;;;5061057;28;20138;-68
2022/05/01 10:51:43;;;;;;;;;;;14.40;99.90;;;;;;5060718;28;19925;-70
2022/05/01 10:54:34;;;;;;;;;;;14.40;99.90;;;;;;5055229;28;19921;-69
2022/05/01 10:57:08;;;;;;;;;;;14.30;99.90;;;;;;5060000;28;20159;-70
2022/05/01 10:59:38;;;;;;;;;;;14.20;99.90;;;;;;5057284;28;20224;-69
2022/05/01 11:02:06;;;;;;;;;;;14.20;99.90;;;;;;5063043;28;19963;-69
2022/05/01 11:04:40;;;;;;;;;;;14.40;99.90;;;;;;5063135;28;19921;-68
2022/05/01 11:07:10;;;;;;;;;;;14.60;99.90;;;;;;5062179;28;19928;-68
2022/05/01 11:09:40;;;;;;;;;;;14.70;99.90;;;;;;5061619;28;19955;-68
2022/05/01 11:12:08;;;;;;;;;;;14.80;99.90;;;;;;5059432;28;19928;-68
2022/05/01 11:14:35;;;;;;;;;;;14.70;99.90;;;;;;5062662;28;19921;-68
2022/05/01 11:17:02;;;;;;;;;;;14.70;99.90;;;;;;5061838;28;19921;-69
2022/05/01 11:19:31;;;;;;;;;;;14.80;99.90;;;;;;5062945;28;19921;-68
2022/05/01 11:21:58;;;;;;;;;;;15.00;99.90;;;;;;5061414;28;20235;-69
2022/05/01 11:24:42;;;;;;;;;;;15.20;99.90;;;;;;5061597;28;19981;-68
2022/05/01 11:27:16;;;;;;;;;;;15.60;99.90;;;;;;5062066;28;19960;-68
2022/05/01 11:30:01;;;;;;;;;;;16.00;99.90;;;;;;5050462;28;19936;-68
2022/05/01 11:32:42;;;;;;;;;;;16.30;99.90;;;;;;5061493;28;19927;-68
2022/05/01 11:35:11;;;;;;;;;;;16.40;99.90;;;;;;5061615;28;19921;-68
2022/05/01 11:37:46;;;;;;;;;;;16.20;99.90;;;;;;5052928;28;19928;-68
2022/05/01 11:40:26;;;;;;;;;;;16.10;99.90;;;;;;5059985;28;19921;-69
2022/05/01 11:42:53;;;;;;;;;;;15.90;99.90;;;;;;5061287;28;19929;-68
2022/05/01 11:45:22;;;;;;;;;;;15.80;99.90;;;;;;5061720;28;19979;-68
2022/05/01 11:47:51;;;;;;;;;;;15.70;99.90;;;;;;5062666;28;20258;-68
2022/05/01 11:50:19;;;;;;;;;;;15.70;99.90;;;;;;5062722;28;19921;-68
2022/05/01 11:52:49;;;;;;;;;;;15.50;99.90;;;;;;5061963;28;19963;-68
2022/05/01 11:55:18;;;;;;;;;;;15.30;99.90;;;;;;5062918;28;20092;-68
2022/05/01 12:03:27;;;;;;;;;;;15.20;99.90;;;;;;5046696;28;19924;-67
2022/05/01 12:05:54;;;;;;;;;;;15.10;99.90;;;;;;5061061;28;20177;-67
2022/05/01 12:08:21;;;;;;;;;;;15.00;99.90;;;;;;5062136;28;19952;-67
2022/05/01 12:10:48;;;;;;;;;;;14.90;99.90;;;;;;5062551;28;19921;-67
2022/05/01 12:13:20;;;;;;;;;;;14.90;99.90;;;;;;5062806;28;19921;-68
2022/05/01 12:15:47;;;;;;;;;;;14.90;99.90;;;;;;5053161;28;20114;-67
2022/05/01 12:18:14;;;;;;;;;;;14.80;99.90;;;;;;5048687;28;19929;-68
2022/05/01 12:20:40;;;;;;;;;;;14.90;99.90;;;;;;5062566;28;19920;-68
2022/05/01 12:23:14;;;;;;;;;;;14.80;99.90;;;;;;5062275;28;19929;-69
2022/05/01 12:25:41;;;;;;;;;;;14.90;99.90;;;;;;5063649;28;20101;-69
2022/05/01 12:28:10;;;;;;;;;;;15.00;99.90;;;;;;5066385;28;20116;-69
2022/05/01 12:30:38;;;;;;;;;;;15.00;99.90;;;;;;5066420;28;20618;-69
2022/05/01 12:33:05;;;;;;;;;;;15.00;99.90;;;;;;5065417;28;19935;-71
2022/05/01 12:35:47;;;;;;;;;;;15.00;99.90;;;;;;5065656;28;19929;-69
2022/05/01 12:38:13;;;;;;;;;;;15.00;99.90;;;;;;5065739;28;19920;-68
2022/05/01 12:46:23;;;;;;;;;;;15.10;99.90;;;;;;5050455;28;19955;-69
2022/05/01 12:48:49;;;;;;;;;;;15.20;99.90;;;;;;5061962;28;19988;-68
2022/05/01 12:51:16;;;;;;;;;;;15.30;99.90;;;;;;5065998;28;19921;-69
2022/05/01 12:53:43;;;;;;;;;;;15.30;99.90;;;;;;5065005;28;19921;-68
2022/05/01 12:56:16;;;;;;;;;;;15.30;99.90;;;;;;5065184;28;19921;-68
2022/05/01 12:58:43;;;;;;;;;;;15.30;99.90;;;;;;5057798;28;20200;-70
2022/05/01 13:01:21;;;;;;;;;;;15.30;99.90;;;;;;5046312;28;19921;-69
2022/05/01 13:03:49;;;;;;;;;;;15.20;99.90;;;;;;5065810;28;19980;-69
2022/05/01 13:06:17;;;;;;;;;;;15.20;99.90;;;;;;5065065;28;19928;-69
2022/05/01 13:08:44;;;;;;;;;;;15.20;99.90;;;;;;5065527;28;19921;-69
2022/05/01 13:11:11;;;;;;;;;;;15.20;99.90;;;;;;5065514;28;20088;-68
2022/05/01 13:13:49;;;;;;;;;;;15.30;99.90;;;;;;5065473;28;19925;-69
2022/05/01 13:16:17;;;;;;;;;;;15.30;99.90;;;;;;5063027;28;19921;-69
2022/05/01 13:18:44;;;;;;;;;;;15.30;99.90;;;;;;5064699;28;20209;-68
2022/05/01 13:21:12;;;;;;;;;;;15.40;99.90;;;;;;5062261;28;20212;-68
2022/05/01 13:23:39;;;;;;;;;;;15.40;99.90;;;;;;5064594;28;19927;-69
2022/05/01 13:26:06;;;;;;;;;;;15.40;99.90;;;;;;5055693;28;19928;-68
2022/05/01 13:28:32;;;;;;;;;;;15.40;99.90;;;;;;5074074;28;19939;-67
2022/05/01 13:30:59;;;;;;;;;;;15.30;99.90;;;;;;5083927;28;19927;-67
2022/05/01 13:33:25;;;;;;;;;;;15.30;99.90;;;;;;5062177;28;19929;-67
2022/05/01 13:35:52;;;;;;;;;;;15.40;99.90;;;;;;5062196;28;19943;-67
2022/05/01 13:38:20;;;;;;;;;;;15.50;99.90;;;;;;5063640;28;19927;-67
2022/05/01 13:46:20;;;;;;;;;;;15.50;99.90;;;;;;5061028;28;19924;-67
2022/05/01 13:48:47;;;;;;;;;;;15.60;99.90;;;;;;5063512;28;19921;-67
2022/05/01 13:51:16;;;;;;;;;;;15.60;99.90;;;;;;5061986;28;19948;-67
2022/05/01 13:53:44;;;;;;;;;;;15.60;99.90;;;;;;5063825;28;19921;-67
2022/05/01 13:56:12;;;;;;;;;;;15.70;99.90;;;;;;5062888;28;19928;-67
2022/05/01 13:58:39;;;;;;;;;;;15.50;99.90;;;;;;5060824;28;20175;-67
2022/05/01 14:01:05;;;;;;;;;;;15.50;99.90;;;;;;5053319;28;19927;-67
2022/05/01 14:03:33;;;;;;;;;;;15.60;99.90;;;;;;5063451;28;19921;-67
2022/05/01 14:06:00;;;;;;;;;;;15.70;99.90;;;;;;5064108;28;20221;-68
2022/05/01 14:08:27;;;;;;;;;;;15.80;99.90;;;;;;5063744;28;19935;-67
2022/05/01 14:10:55;;;;;;;;;;;15.90;99.90;;;;;;5064565;28;19925;-67
2022/05/01 14:13:21;;;;;;;;;;;16.00;99.90;;;;;;5064598;28;20119;-68
2022/05/01 14:15:48;;;;;;;;;;;15.90;99.90;;;;;;5064434;28;19927;-67
2022/05/01 14:18:16;;;;;;;;;;;16.00;99.90;;;;;;5061544;28;19921;-69
2022/05/01 14:20:44;;;;;;;;;;;16.10;99.90;;;;;;5062085;28;19966;-67
2022/05/01 14:23:12;;;;;;;;;;;16.20;99.90;;;;;;5064204;28;19920;-67
2022/05/01 14:25:39;;;;;;;;;;;16.30;99.90;;;;;;5062955;28;19960;-67
2022/05/01 14:28:07;;;;;;;;;;;16.40;99.90;;;;;;5063594;28;19921;-67
2022/05/01 14:30:35;;;;;;;;;;;16.80;99.90;;;;;;5063985;28;20235;-67
2022/05/01 14:33:08;;;;;;;;;;;17.20;99.90;;;;;;5063433;28;19921;-67
2022/05/01 14:35:36;;;;;;;;;;;17.60;99.90;;;;;;5063669;28;20120;-68
2022/05/01 14:38:03;;;;;;;;;;;17.90;99.90;;;;;;5064044;28;19951;-67
2022/05/01 14:40:30;;;;;;;;;;;17.90;99.90;;;;;;5064124;28;19935;-67
2022/05/01 14:42:58;;;;;;;;;;;17.80;99.90;;;;;;5063805;28;19925;-67
2022/05/01 14:45:27;;;;;;;;;;;17.60;99.90;;;;;;5063445;28;19927;-67
2022/05/01 14:47:57;;;;;;;;;;;17.60;99.90;;;;;;5063449;28;19920;-68
2022/05/01 14:50:25;;;;;;;;;;;17.50;99.90;;;;;;5063319;28;19983;-67
2022/05/01 14:52:52;;;;;;;;;;;17.30;99.90;;;;;;5063897;28;19924;-68
2022/05/01 14:55:20;;;;;;;;;;;17.20;99.90;;;;;;5073654;28;20266;-66
2022/05/01 14:57:49;;;;;;;;;;;16.90;99.90;;;;;;5084053;28;19927;-68
2022/05/01 15:08:30;;;;;;;;;;;16.40;99.90;;;;;;5063650;28;19924;-68
2022/05/01 15:10:57;;;;;;;;;;;16.40;99.90;;;;;;5043441;28;19921;-67
2022/05/01 15:13:24;;;;;;;;;;;16.40;99.90;;;;;;5060339;28;19937;-67
2022/05/01 15:15:59;;;;;;;;;;;16.40;99.90;;;;;;5062196;28;19935;-68